Time;durP1;ratioP1;P1;durP2;ratioP2;P2;SDS_P1;SDS_P2;PMS_P1;PMS_P2;Temp;Humidity;BMP_temperature;BMP_pressure;BME280_temperature;BME280_humidity;BME280_pressure;Samples;Min_cycle;Max_cycle;Signal;HPM_P1;HPM_P2
2023/04/14 00:01:17;;;;;;;15.50;2.20;;;;;;;5.83;100.00;100551.19;4966217;28;20125;-83
2023/04/14 00:03:43;;;;;;;7.25;2.38;;;;;;;5.81;100.00;100557.72;4946107;29;20050;-83
2023/04/14 00:06:08;;;;;;;12.98;2.47;;;;;;;5.82;100.00;100556.72;4965877;28;20042;-83
2023/04/14 00:08:34;;;;;;;8.32;2.78;;;;;;;5.76;100.00;100557.13;4984382;28;20059;-82
2023/04/14 00:10:59;;;;;;;12.55;3.67;;;;;;;5.68;100.00;100549.47;4974608;28;20380;-82
2023/04/14 00:13:25;;;;;;;11.43;3.17;;;;;;;5.59;100.00;100545.50;4944252;28;20058;-83
2023/04/14 00:15:50;;;;;;;10.73;3.05;;;;;;;5.60;100.00;100543.66;4967773;28;20039;-83
2023/04/14 00:18:16;;;;;;;14.88;2.60;;;;;;;5.73;100.00;100558.19;4972980;28;20086;-82
2023/04/14 00:20:41;;;;;;;11.25;2.38;;;;;;;5.77;100.00;100542.56;4954364;28;20138;-82
2023/04/14 00:23:07;;;;;;;7.38;2.15;;;;;;;5.81;100.00;100549.56;4998660;28;20047;-81
2023/04/14 00:25:32;;;;;;;6.95;2.33;;;;;;;5.85;100.00;100552.00;4947633;28;20043;-81
2023/04/14 00:27:58;;;;;;;10.13;2.28;;;;;;;5.86;100.00;100558.28;4994319;28;20030;-81
2023/04/14 00:30:23;;;;;;;13.13;2.30;;;;;;;5.82;100.00;100546.75;4956713;28;20058;-83
2023/04/14 00:32:49;;;;;;;14.10;2.60;;;;;;;5.73;100.00;100550.03;4978238;28;20062;-83
2023/04/14 00:35:14;;;;;;;12.23;2.83;;;;;;;5.79;100.00;100549.66;4980182;28;20065;-83
2023/04/14 00:37:40;;;;;;;10.55;2.63;;;;;;;5.78;100.00;100561.47;4967880;28;20034;-81
2023/04/14 00:40:09;;;;;;;10.77;3.17;;;;;;;5.74;100.00;100559.94;4956626;28;20050;-82
2023/04/14 00:42:42;;;;;;;10.95;3.35;;;;;;;5.70;100.00;100556.53;4949014;29;20099;-82
2023/04/14 00:45:08;;;;;;;17.17;4.22;;;;;;;5.65;100.00;100555.94;4975324;28;20144;-82
2023/04/14 00:47:34;;;;;;;10.48;4.40;;;;;;;5.60;100.00;100559.94;4961723;28;20075;-83
2023/04/14 00:50:03;;;;;;;15.73;6.03;;;;;;;5.56;100.00;100556.56;4987621;28;20031;-83
2023/04/14 00:52:30;;;;;;;17.92;6.13;;;;;;;5.57;100.00;100563.72;4991472;28;20439;-82
2023/04/14 00:54:58;;;;;;;15.68;6.07;;;;;;;5.61;100.00;100568.00;4975227;28;20055;-82
2023/04/14 00:57:25;;;;;;;18.60;6.15;;;;;;;5.57;100.00;100571.88;4949752;28;20051;-82
2023/04/14 00:59:52;;;;;;;12.43;6.32;;;;;;;5.57;100.00;100574.56;4975171;28;20038;-81
2023/04/14 01:02:17;;;;;;;13.38;4.72;;;;;;;5.58;100.00;100573.63;4960298;28;20035;-83
2023/04/14 01:04:43;;;;;;;12.68;4.55;;;;;;;5.37;100.00;100573.13;4971090;28;20435;-82
2023/04/14 01:07:09;;;;;;;16.80;4.38;;;;;;;5.24;100.00;100569.41;4941050;28;20425;-81
2023/04/14 01:09:35;;;;;;;18.70;5.15;;;;;;;5.21;100.00;100569.59;4961388;28;20028;-83
2023/04/14 01:12:15;;;;;;;21.23;5.43;;;;;;;5.23;100.00;100571.28;4983191;28;20035;-84
2023/04/14 01:14:57;;;;;;;13.73;4.10;;;;;;;5.23;100.00;100576.69;4991028;28;20466;-82
2023/04/14 01:17:34;;;;;;;12.02;3.80;;;;;;;5.19;100.00;100577.84;5013344;28;20113;-82
2023/04/14 01:20:08;;;;;;;14.43;4.15;;;;;;;5.19;100.00;100572.41;4971569;28;20031;-81
2023/04/14 01:22:38;;;;;;;13.18;3.25;;;;;;;5.19;100.00;100569.69;4974916;28;20066;-84
2023/04/14 01:25:41;;;;;;;8.27;3.95;;;;;;;5.27;100.00;100580.09;4995705;28;20557;-83
2023/04/14 01:28:16;;;;;;;8.20;2.83;;;;;;;5.24;100.00;100588.41;4961254;28;20061;-81
2023/04/14 01:30:44;;;;;;;14.40;3.40;;;;;;;5.13;100.00;100579.09;5011257;28;20430;-82
2023/04/14 01:33:13;;;;;;;13.07;3.13;;;;;;;5.06;100.00;100588.56;4972682;28;20049;-81
2023/04/14 01:35:44;;;;;;;8.68;2.58;;;;;;;4.93;100.00;100588.41;4962285;28;20057;-82
2023/04/14 01:38:24;;;;;;;12.85;2.80;;;;;;;4.86;100.00;100573.50;4993463;28;20028;-82
2023/04/14 01:40:52;;;;;;;11.60;2.80;;;;;;;4.94;100.00;100582.03;4977848;28;20050;-82
2023/04/14 01:43:25;;;;;;;15.45;3.08;;;;;;;4.99;100.00;100579.06;5007113;28;20031;-83
2023/04/14 01:45:55;;;;;;;17.60;3.42;;;;;;;4.74;100.00;100577.81;4996218;28;20038;-83
2023/04/14 01:48:22;;;;;;;13.65;3.03;;;;;;;4.70;100.00;100578.94;5013265;28;20438;-83
2023/04/14 01:50:48;;;;;;;25.20;7.88;;;;;;;4.75;100.00;100582.25;4962803;28;20054;-83
2023/04/14 01:53:17;;;;;;;26.10;8.40;;;;;;;4.83;100.00;100581.81;4975766;28;20134;-83
2023/04/14 01:55:44;;;;;;;15.75;5.88;;;;;;;4.82;100.00;100585.50;4987323;28;20031;-83
2023/04/14 01:58:13;;;;;;;21.52;6.25;;;;;;;4.85;100.00;100582.59;4977502;28;20037;-82
2023/04/14 02:00:39;;;;;;;23.85;6.75;;;;;;;4.93;100.00;100601.97;4992591;28;20121;-82
2023/04/14 02:03:05;;;;;;;23.80;8.25;;;;;;;4.84;100.00;100591.69;4983552;28;20059;-82
2023/04/14 02:05:34;;;;;;;19.08;6.38;;;;;;;4.85;100.00;100601.56;4958627;28;20042;-82
2023/04/14 02:08:06;;;;;;;13.10;4.60;;;;;;;4.82;100.00;100603.59;4958730;28;20031;-82
2023/04/14 02:10:35;;;;;;;26.08;7.78;;;;;;;4.75;100.00;100597.66;4957613;28;20560;-83
2023/04/14 02:13:02;;;;;;;25.70;6.03;;;;;;;4.87;100.00;100596.94;5008051;28;20030;-83
2023/04/14 02:15:31;;;;;;;19.38;4.72;;;;;;;4.85;100.00;100606.13;5010594;28;20502;-83
2023/04/14 02:17:57;;;;;;;19.83;4.57;;;;;;;4.73;100.00;100607.72;4977034;28;20101;-83
2023/04/14 02:20:26;;;;;;;7.68;3.38;;;;;;;4.66;100.00;100599.09;4993125;28;20113;-83
2023/04/14 02:22:52;;;;;;;13.15;3.75;;;;;;;4.65;100.00;100601.88;4956671;29;20042;-83
2023/04/14 02:25:22;;;;;;;8.82;3.17;;;;;;;4.63;100.00;100614.66;4992295;28;20031;-83
2023/04/14 02:27:53;;;;;;;6.13;3.05;;;;;;;4.63;100.00;100612.81;4972461;28;20034;-82
2023/04/14 02:30:29;;;;;;;10.05;2.78;;;;;;;4.50;100.00;100599.09;4971887;28;20031;-81
2023/04/14 02:33:06;;;;;;;11.90;3.05;;;;;;;4.73;100.00;100629.44;4987829;28;20050;-83
2023/04/14 02:35:46;;;;;;;13.15;2.97;;;;;;;4.65;100.00;100619.03;4977073;28;20045;-82
2023/04/14 02:38:28;;;;;;;14.02;3.72;;;;;;;4.63;100.00;100611.97;4972309;28;20042;-83
2023/04/14 02:40:55;;;;;;;8.07;2.87;;;;;;;4.59;100.00;100614.84;4995072;28;20054;-82
2023/04/14 02:43:32;;;;;;;14.50;3.20;;;;;;;4.62;100.00;100615.63;4943879;28;20289;-82
2023/04/14 02:46:01;;;;;;;16.40;4.00;;;;;;;4.53;100.00;100620.63;4976769;28;20033;-83
2023/04/14 02:48:28;;;;;;;15.40;3.15;;;;;;;4.40;100.00;100616.88;4971825;28;20030;-83
2023/04/14 02:50:56;;;;;;;8.57;2.65;;;;;;;4.37;100.00;100630.59;4936209;28;20058;-82
2023/04/14 02:53:24;;;;;;;10.57;2.58;;;;;;;4.24;100.00;100628.56;4977509;28;20039;-83
2023/04/14 02:55:51;;;;;;;14.60;3.75;;;;;;;4.21;100.00;100622.44;4980602;28;20149;-81
2023/04/14 02:58:16;;;;;;;10.43;3.20;;;;;;;4.20;100.00;100627.00;4992612;28;20027;-82
2023/04/14 03:00:43;;;;;;;5.90;3.13;;;;;;;4.33;100.00;100627.19;4941501;28;20042;-82
2023/04/14 03:03:11;;;;;;;9.05;3.10;;;;;;;4.36;100.00;100634.25;4966746;28;20066;-82
2023/04/14 03:05:39;;;;;;;18.15;3.88;;;;;;;4.20;100.00;100624.28;4978760;28;20043;-82
2023/04/14 03:08:05;;;;;;;15.70;3.15;;;;;;;4.28;100.00;100626.56;4978479;28;20039;-83
2023/04/14 03:10:32;;;;;;;10.90;2.95;;;;;;;4.00;100.00;100624.53;4965881;28;20498;-82
2023/04/14 03:13:00;;;;;;;9.45;2.97;;;;;;;3.80;100.00;100622.91;4972662;28;20027;-82
2023/04/14 03:15:26;;;;;;;15.55;2.83;;;;;;;3.75;100.00;100622.31;4981632;28;20035;-83
2023/04/14 03:17:56;;;;;;;9.80;3.00;;;;;;;3.97;100.00;100616.59;4970030;28;20039;-83
2023/04/14 03:20:22;;;;;;;10.40;2.65;;;;;;;3.97;100.00;100622.00;4998463;28;20027;-83
2023/04/14 03:22:56;;;;;;;13.70;2.92;;;;;;;4.02;100.00;100623.50;4960591;28;20039;-82
2023/04/14 03:25:26;;;;;;;9.55;2.80;;;;;;;4.02;100.00;100625.34;4967441;28;20089;-82
2023/04/14 03:27:53;;;;;;;11.10;3.17;;;;;;;4.01;100.00;100619.03;4988052;28;20027;-82
2023/04/14 03:30:24;;;;;;;13.93;2.97;;;;;;;3.88;100.00;100619.81;4976963;28;20038;-82
2023/04/14 03:32:50;;;;;;;7.90;3.22;;;;;;;3.91;100.00;100631.34;4999033;28;20058;-82
2023/04/14 03:35:20;;;;;;;10.60;3.67;;;;;;;3.74;100.00;100639.50;4985107;28;20034;-82
2023/04/14 03:37:48;;;;;;;17.45;3.35;;;;;;;3.73;100.00;100621.53;4982188;28;20034;-81
2023/04/14 03:40:15;;;;;;;8.50;3.20;;;;;;;3.74;100.00;100626.84;4970960;28;20130;-82
2023/04/14 03:42:43;;;;;;;14.15;3.47;;;;;;;3.70;100.00;100609.00;4985988;28;20054;-82
2023/04/14 03:45:09;;;;;;;12.95;3.50;;;;;;;3.85;100.00;100631.66;4975410;28;20394;-83
2023/04/14 03:47:36;;;;;;;10.98;3.17;;;;;;;3.80;100.00;100636.47;4971128;28;20487;-82
2023/04/14 03:50:04;;;;;;;10.25;3.22;;;;;;;3.93;100.00;100642.09;4981583;28;20065;-81
2023/04/14 03:52:33;;;;;;;11.85;3.05;;;;;;;3.95;100.00;100640.16;4971576;28;20031;-82
2023/04/14 03:55:05;;;;;;;12.98;3.13;;;;;;;3.88;100.00;100638.75;5006357;28;20038;-81
2023/04/14 03:57:31;;;;;;;18.25;3.40;;;;;;;3.74;100.00;100637.69;4974406;28;20023;-82
2023/04/14 04:00:00;;;;;;;8.15;2.92;;;;;;;3.57;100.00;100637.69;4971974;28;20062;-81
2023/04/14 04:02:29;;;;;;;8.15;2.50;;;;;;;3.57;100.00;100641.28;4956849;28;20039;-81
2023/04/14 04:04:55;;;;;;;10.48;3.25;;;;;;;3.61;100.00;100637.47;4995016;28;20059;-81
2023/04/14 04:07:22;;;;;;;9.70;3.08;;;;;;;3.60;100.00;100640.25;5001195;28;20039;-82
2023/04/14 04:09:49;;;;;;;14.77;3.80;;;;;;;3.50;100.00;100643.44;4992904;28;20035;-82
2023/04/14 04:12:18;;;;;;;7.22;3.00;;;;;;;3.58;100.00;100643.03;5013550;28;20035;-81
2023/04/14 04:14:43;;;;;;;18.40;3.75;;;;;;;3.53;100.00;100642.41;4992449;28;20094;-82
2023/04/14 04:17:17;;;;;;;12.40;3.38;;;;;;;3.49;100.00;100627.28;5011536;28;20066;-82
2023/04/14 04:19:44;;;;;;;10.95;3.30;;;;;;;3.68;100.00;100643.41;4972382;29;20599;-82
2023/04/14 04:22:15;;;;;;;10.00;2.95;;;;;;;3.62;100.00;100647.34;4974870;28;20023;-80
2023/04/14 04:24:43;;;;;;;19.13;3.17;;;;;;;3.47;100.00;100638.19;4987536;28;20090;-82
2023/04/14 04:27:09;;;;;;;7.93;2.70;;;;;;;3.52;100.00;100645.19;4969433;28;20498;-81
2023/04/14 04:29:36;;;;;;;10.73;3.28;;;;;;;3.41;100.00;100638.53;4984229;28;20043;-81
2023/04/14 04:32:01;;;;;;;10.70;3.40;;;;;;;3.52;100.00;100642.50;5000081;28;20039;-80
2023/04/14 04:34:31;;;;;;;9.80;2.80;;;;;;;3.48;100.00;100631.81;4959074;29;20034;-82
2023/04/14 04:37:00;;;;;;;19.00;3.63;;;;;;;3.56;100.00;100644.97;5041874;23;20055;-79
2023/04/14 04:39:25;;;;;;;10.40;3.58;;;;;;;3.55;100.00;100637.78;5109986;23;20073;-77
2023/04/14 04:42:02;;;;;;;13.90;3.72;;;;;;;3.60;100.00;100641.13;4976160;28;20510;-80
2023/04/14 04:44:27;;;;;;;12.32;3.42;;;;;;;3.60;100.00;100634.84;5011379;28;20026;-80
2023/04/14 04:46:54;;;;;;;14.25;3.78;;;;;;;3.51;100.00;100630.81;4984577;28;20029;-82
2023/04/14 04:49:20;;;;;;;12.10;3.97;;;;;;;3.48;100.00;100618.28;5122649;23;20046;-81
2023/04/14 04:51:46;;;;;;;18.02;4.60;;;;;;;3.47;100.00;100630.06;4984473;28;20042;-81
2023/04/14 04:54:12;;;;;;;18.58;4.30;;;;;;;3.63;100.00;100637.38;5009567;28;20038;-83
2023/04/14 04:56:37;;;;;;;22.00;4.82;;;;;;;3.68;100.00;100632.59;5015221;28;20161;-82
2023/04/14 04:59:03;;;;;;;22.45;4.30;;;;;;;3.86;100.00;100631.56;4995145;28;20038;-81
2023/04/14 05:01:28;;;;;;;15.73;4.28;;;;;;;3.80;100.00;100622.91;5000108;28;20038;-82
2023/04/14 05:03:54;;;;;;;13.90;3.70;;;;;;;3.81;100.00;100635.50;4984389;28;20030;-82
2023/04/14 05:06:19;;;;;;;10.77;3.53;;;;;;;3.71;100.00;100639.69;5019638;28;20039;-82
2023/04/14 05:08:45;;;;;;;12.20;4.53;;;;;;;3.66;100.00;100632.66;5009917;28;20107;-82
2023/04/14 05:11:10;;;;;;;10.82;3.75;;;;;;;3.38;100.00;100638.69;4983688;28;20043;-82
2023/04/14 05:13:36;;;;;;;14.55;3.88;;;;;;;3.34;100.00;100638.94;4975716;28;20094;-83
2023/04/14 05:16:12;;;;;;;13.60;3.83;;;;;;;3.43;100.00;100638.44;4970488;28;20058;-82
2023/04/14 05:18:38;;;;;;;18.15;3.88;;;;;;;3.46;100.00;100650.00;5013901;28;20074;-82
2023/04/14 05:21:05;;;;;;;19.00;4.30;;;;;;;3.57;100.00;100649.41;4967429;28;20038;-82
2023/04/14 05:23:35;;;;;;;8.57;3.90;;;;;;;3.49;100.00;100641.72;4957232;28;20047;-82
2023/04/14 05:26:02;;;;;;;13.57;3.80;;;;;;;3.57;100.00;100648.53;5026385;28;20030;-82
2023/04/14 05:28:27;;;;;;;14.93;4.65;;;;;;;3.57;100.00;100652.09;4991651;28;20061;-80
2023/04/14 05:30:53;;;;;;;9.95;4.00;;;;;;;3.58;100.00;100651.16;4984365;28;20031;-82
2023/04/14 05:33:19;;;;;;;11.90;4.93;;;;;;;3.70;100.00;100656.88;4957315;28;20030;-81
2023/04/14 05:35:45;;;;;;;10.70;4.47;;;;;;;3.75;100.00;100643.97;4976907;28;20105;-81
2023/04/14 05:38:14;;;;;;;18.27;5.30;;;;;;;3.75;100.00;100639.41;4955027;28;20191;-81
2023/04/14 05:40:40;;;;;;;16.63;5.18;;;;;;;3.90;100.00;100647.66;4956770;28;20386;-80
2023/04/14 05:43:06;;;;;;;16.75;6.57;;;;;;;3.93;100.00;100648.38;4943308;28;20038;-80
2023/04/14 05:45:31;;;;;;;16.33;6.43;;;;;;;4.06;100.00;100651.28;4978438;28;20046;-79
2023/04/14 05:47:57;;;;;;;18.17;5.03;;;;;;;4.26;100.00;100662.84;4945421;28;20039;-80
2023/04/14 05:50:22;;;;;;;11.93;4.38;;;;;;;4.26;100.00;100665.56;4950083;28;20033;-80
2023/04/14 05:52:49;;;;;;;13.02;4.60;;;;;;;4.65;100.00;100672.38;4925144;29;20069;-81
2023/04/14 05:55:14;;;;;;;20.88;5.82;;;;;;;4.97;100.00;100665.97;4975676;28;20053;-80
2023/04/14 05:57:40;;;;;;;14.07;5.63;;;;;;;5.17;100.00;100653.06;4973562;28;20411;-79
2023/04/14 06:00:06;;;;;;;25.17;5.90;;;;;;;5.26;100.00;100648.91;4928448;28;20034;-81
2023/04/14 06:02:32;;;;;;;21.48;5.85;;;;;;;5.15;100.00;100644.13;4943621;28;20035;-80
2023/04/14 06:05:00;;;;;;;15.35;4.53;;;;;;;5.47;100.00;100658.44;4968078;28;20398;-81
2023/04/14 06:07:26;;;;;;;17.00;4.88;;;;;;;5.52;100.00;100660.88;4951476;28;20035;-81
2023/04/14 06:09:52;;;;;;;25.98;6.18;;;;;;;5.56;100.00;100659.75;4963836;28;20062;-81
2023/04/14 06:12:17;;;;;;;16.48;5.18;;;;;;;5.88;100.00;100656.84;4984231;28;20050;-80
2023/04/14 06:14:43;;;;;;;19.52;5.00;;;;;;;6.13;100.00;100668.94;4986164;28;20030;-82
2023/04/14 06:17:08;;;;;;;11.35;4.55;;;;;;;6.04;100.00;100660.38;4972793;28;20039;-87
2023/04/14 06:19:34;;;;;;;12.52;4.68;;;;;;;5.96;100.00;100654.56;4985984;28;20131;-86
2023/04/14 06:21:59;;;;;;;9.23;4.80;;;;;;;6.24;100.00;100652.81;4966777;28;20062;-84
2023/04/14 06:24:25;;;;;;;14.02;4.63;;;;;;;6.31;100.00;100645.13;4956392;28;20073;-86
2023/04/14 06:26:50;;;;;;;18.42;4.55;;;;;;;6.50;100.00;100652.97;4956694;28;20038;-83
2023/04/14 06:29:16;;;;;;;12.88;4.03;;;;;;;6.67;100.00;100651.84;4973258;28;20038;-83
2023/04/14 06:31:42;;;;;;;12.45;4.07;;;;;;;6.55;100.00;100648.09;4970888;28;20439;-83
2023/04/14 06:34:07;;;;;;;9.27;3.95;;;;;;;7.06;100.00;100653.75;4963172;28;20043;-80
2023/04/14 06:36:33;;;;;;;14.85;4.35;;;;;;;7.31;100.00;100663.84;4969753;28;20054;-82
2023/04/14 06:38:59;;;;;;;11.43;4.00;;;;;;;7.41;100.00;100644.13;4957462;28;20043;-82
2023/04/14 06:41:25;;;;;;;11.50;3.45;;;;;;;7.58;100.00;100651.16;4984570;28;20034;-81
2023/04/14 06:43:50;;;;;;;14.25;4.22;;;;;;;7.71;100.00;100647.44;4946651;28;20030;-81
2023/04/14 06:46:16;;;;;;;13.23;3.70;;;;;;;8.02;100.00;100641.66;4964872;28;20039;-86
2023/04/14 06:48:42;;;;;;;16.25;3.63;;;;;;;7.79;100.00;100641.47;4980540;28;20039;-85
2023/04/14 06:51:11;;;;;;;9.00;3.50;;;;;;;7.93;100.00;100640.47;4977825;28;20126;-85
2023/04/14 06:53:39;;;;;;;16.38;3.88;;;;;;;7.95;100.00;100630.31;4953401;28;20074;-82
2023/04/14 06:56:06;;;;;;;10.07;3.80;;;;;;;8.03;100.00;100637.94;4976256;28;20042;-83
2023/04/14 06:58:32;;;;;;;14.25;3.50;;;;;;;8.65;100.00;100635.22;4955969;28;20034;-81
2023/04/14 07:00:59;;;;;;;14.60;3.38;;;;;;;8.82;100.00;100635.78;4966434;28;20023;-81
2023/04/14 07:03:26;;;;;;;8.98;3.10;;;;;;;9.06;100.00;100632.22;4973744;28;20470;-82
2023/04/14 07:05:52;;;;;;;7.88;3.22;;;;;;;9.54;100.00;100640.31;4960264;28;20042;-82
2023/04/14 07:08:20;;;;;;;18.33;3.08;;;;;;;9.45;100.00;100632.84;4987942;28;20031;-84
2023/04/14 07:10:46;;;;;;;10.10;2.95;;;;;;;9.56;100.00;100632.88;4962152;28;20063;-84
2023/04/14 07:13:12;;;;;;;14.50;3.92;;;;;;;9.86;100.00;100628.72;4973054;28;20039;-83
2023/04/14 07:15:38;;;;;;;8.38;2.60;;;;;;;9.91;100.00;100629.22;4973109;28;20043;-83
2023/04/14 07:18:03;;;;;;;9.55;2.40;;;;;;;9.93;100.00;100616.28;4996541;28;20023;-83
2023/04/14 07:20:29;;;;;;;11.50;2.58;;;;;;;10.48;100.00;100628.22;4975716;28;20030;-83
2023/04/14 07:22:55;;;;;;;13.13;3.05;;;;;;;10.54;100.00;100618.63;4955277;28;20159;-83
2023/04/14 07:25:21;;;;;;;15.45;2.58;;;;;;;10.48;100.00;100627.38;4972748;28;20046;-83
2023/04/14 07:27:46;;;;;;;12.23;3.35;;;;;;;10.47;100.00;100615.53;4976194;28;20451;-83
2023/04/14 07:30:12;;;;;;;12.88;2.75;;;;;;;10.62;100.00;100623.47;4960173;28;20033;-84
2023/04/14 07:32:37;;;;;;;10.75;3.03;;;;;;;10.84;100.00;100617.94;4976380;28;20047;-83
2023/04/14 07:35:04;;;;;;;10.77;2.28;;;;;;;10.85;100.00;100613.31;4973628;28;20042;-83
2023/04/14 07:37:30;;;;;;;11.43;3.20;;;;;;;11.66;100.00;100608.22;4975591;28;20085;-83
2023/04/14 07:39:55;;;;;;;11.23;2.70;;;;;;;11.82;100.00;100613.19;4980650;28;20030;-84
2023/04/14 07:42:21;;;;;;;6.45;2.55;;;;;;;12.08;100.00;100607.28;4961398;28;20041;-84
2023/04/14 07:44:46;;;;;;;10.80;2.33;;;;;;;12.71;98.38;100604.34;4976427;28;20141;-83
2023/04/14 07:47:12;;;;;;;16.42;2.85;;;;;;;12.21;100.00;100596.94;4942469;28;20480;-83
2023/04/14 07:49:37;;;;;;;10.05;2.30;;;;;;;12.45;96.14;100604.84;4961673;28;20145;-83
2023/04/14 07:52:03;;;;;;;6.40;1.98;;;;;;;12.76;90.37;100601.16;4956765;28;20039;-83
2023/04/14 07:54:30;;;;;;;6.30;1.90;;;;;;;12.00;100.00;100598.88;4975950;28;20501;-83
2023/04/14 07:56:56;;;;;;;10.48;2.30;;;;;;;12.82;92.05;100603.31;4959687;28;20029;-82
2023/04/14 07:59:22;;;;;;;10.38;2.67;;;;;;;12.51;96.43;100595.19;4975612;28;20399;-84
2023/04/14 08:01:48;;;;;;;8.93;1.98;;;;;;;13.60;83.08;100597.84;4975124;28;20038;-83
2023/04/14 08:04:13;;;;;;;12.13;2.55;;;;;;;13.56;85.84;100607.41;4989586;28;20038;-83
2023/04/14 08:06:38;;;;;;;6.75;2.17;;;;;;;13.29;85.55;100608.13;4960463;28;20035;-83
2023/04/14 08:09:04;;;;;;;6.70;2.03;;;;;;;13.23;85.96;100604.97;4960098;28;20050;-83
2023/04/14 08:11:29;;;;;;;11.48;2.25;;;;;;;13.69;84.71;100607.97;4942986;28;20487;-83
2023/04/14 08:13:55;;;;;;;9.43;1.98;;;;;;;13.37;85.23;100595.41;4956807;28;20521;-83
2023/04/14 08:16:21;;;;;;;16.63;2.42;;;;;;;13.68;80.55;100603.47;4942000;29;20479;-84
2023/04/14 08:18:47;;;;;;;8.63;3.25;;;;;;;13.35;88.96;100600.19;4970354;28;20382;-83
2023/04/14 08:21:12;;;;;;;13.25;2.72;;;;;;;13.81;81.69;100600.41;4977850;28;20125;-83
2023/04/14 08:23:38;;;;;;;6.18;1.73;;;;;;;13.61;76.27;100610.59;4962485;28;20066;-83
2023/04/14 08:26:04;;;;;;;9.77;1.98;;;;;;;12.97;83.38;100612.00;4977760;28;20046;-84
2023/04/14 08:28:30;;;;;;;11.13;2.35;;;;;;;13.19;80.73;100599.88;4979050;28;20038;-84
2023/04/14 08:30:55;;;;;;;6.57;1.70;;;;;;;13.33;78.66;100601.34;4978648;28;20165;-84
2023/04/14 08:33:20;;;;;;;13.23;2.13;;;;;;;13.75;77.56;100603.75;4972365;28;20370;-84
2023/04/14 08:35:46;;;;;;;10.90;2.25;;;;;;;13.46;80.51;100596.41;4978364;28;20062;-84
2023/04/14 08:38:12;;;;;;;10.82;2.20;;;;;;;13.24;84.17;100603.06;4963392;28;20037;-84
2023/04/14 08:40:42;;;;;;;10.00;2.65;;;;;;;13.72;78.53;100598.53;4963290;28;20113;-84
2023/04/14 08:43:08;;;;;;;12.20;2.15;;;;;;;14.17;75.73;100595.06;4977338;28;20043;-83
2023/04/14 08:45:35;;;;;;;9.18;2.63;;;;;;;13.94;72.11;100600.09;5007694;28;20063;-83
2023/04/14 08:48:02;;;;;;;6.03;1.92;;;;;;;13.40;77.28;100603.38;4979708;28;20067;-83
2023/04/14 08:50:35;;;;;;;10.40;2.28;;;;;;;13.55;74.88;100598.28;4991805;28;20483;-83
2023/04/14 08:53:05;;;;;;;10.68;1.70;;;;;;;13.66;72.99;100605.53;5000496;28;20458;-83
2023/04/14 08:55:31;;;;;;;9.20;1.70;;;;;;;13.94;73.09;100600.94;4978243;28;20057;-83
2023/04/14 08:58:01;;;;;;;9.70;1.92;;;;;;;13.89;74.26;100594.19;4978887;28;20553;-83
2023/04/14 09:00:26;;;;;;;12.00;2.10;;;;;;;13.87;78.57;100593.44;4988438;28;20042;-83
2023/04/14 09:02:53;;;;;;;8.73;2.00;;;;;;;13.97;74.68;100602.56;4997864;28;20031;-83
2023/04/14 09:05:19;;;;;;;12.07;1.88;;;;;;;14.60;71.67;100601.84;4978743;28;20513;-83
2023/04/14 09:07:45;;;;;;;9.80;2.00;;;;;;;14.69;67.15;100603.69;4993139;28;20034;-83
2023/04/14 09:10:10;;;;;;;4.43;1.55;;;;;;;14.09;70.86;100606.84;4978082;28;20035;-83
2023/04/14 09:12:38;;;;;;;10.07;2.63;;;;;;;14.56;66.23;100608.66;4976738;28;20406;-82
2023/04/14 09:15:04;;;;;;;7.32;1.85;;;;;;;14.10;68.83;100597.56;4977103;28;20045;-83
2023/04/14 09:17:30;;;;;;;7.72;1.20;;;;;;;14.28;64.40;100596.75;4976212;28;20031;-83
2023/04/14 09:19:56;;;;;;;5.05;1.48;;;;;;;15.03;62.94;100591.09;4992002;28;20422;-83
2023/04/14 09:22:22;;;;;;;5.68;1.35;;;;;;;14.71;62.35;100581.47;4978021;28;20054;-83
2023/04/14 09:24:47;;;;;;;7.90;1.85;;;;;;;14.64;62.06;100583.09;4976672;28;20039;-83
2023/04/14 09:27:14;;;;;;;3.28;1.27;;;;;;;15.12;61.31;100584.66;4992162;28;20475;-83
2023/04/14 09:29:40;;;;;;;7.30;1.60;;;;;;;14.92;58.04;100583.94;4976878;28;20062;-83
2023/04/14 09:32:06;;;;;;;13.65;1.73;;;;;;;15.18;58.35;100580.38;4992228;28;20042;-83
2023/04/14 09:34:32;;;;;;;9.82;1.50;;;;;;;14.27;57.51;100571.09;4957288;28;20039;-83
2023/04/14 09:37:05;;;;;;;9.73;1.15;;;;;;;14.65;56.96;100582.94;4996610;28;20035;-83
2023/04/14 09:39:35;;;;;;;6.05;1.15;;;;;;;15.54;54.18;100567.41;4960900;28;20053;-83
2023/04/14 09:42:02;;;;;;;8.90;1.05;;;;;;;14.98;54.61;100576.94;4980074;28;20046;-83
2023/04/14 09:44:28;;;;;;;6.47;1.20;;;;;;;15.49;52.01;100571.69;4992560;28;20049;-82
2023/04/14 09:47:03;;;;;;;7.60;1.00;;;;;;;14.71;53.86;100567.69;4976231;28;20061;-82
2023/04/14 09:49:29;;;;;;;3.53;1.23;;;;;;;14.80;53.63;100572.25;4975960;28;20046;-82
2023/04/14 09:52:07;;;;;;;8.10;1.55;;;;;;;14.71;55.17;100567.69;4943897;28;20056;-82
2023/04/14 09:54:38;;;;;;;7.95;1.20;;;;;;;14.70;53.88;100571.47;4993678;28;20043;-83
2023/04/14 09:57:04;;;;;;;7.07;1.20;;;;;;;14.93;52.30;100571.88;4965651;28;20031;-82
2023/04/14 09:59:37;;;;;;;4.50;1.17;;;;;;;15.42;52.32;100571.47;4969269;28;20039;-82
2023/04/14 10:02:07;;;;;;;3.92;1.02;;;;;;;15.28;51.09;100570.13;4988522;28;20043;-82
2023/04/14 10:04:34;;;;;;;6.95;1.40;;;;;;;15.34;52.56;100561.22;4983483;28;20041;-82
2023/04/14 10:07:00;;;;;;;6.57;1.38;;;;;;;15.21;53.38;100567.13;4977099;28;20085;-82
2023/04/14 10:09:29;;;;;;;8.98;1.40;;;;;;;15.67;49.79;100553.19;4995085;28;20181;-82
2023/04/14 10:12:12;;;;;;;6.28;1.33;;;;;;;14.96;49.29;100549.50;4957168;28;20066;-82
2023/04/14 10:14:41;;;;;;;;;;;;;;;15.06;51.10;100554.94;4964651;28;20066;-81
2023/04/14 10:17:08;;;;;;;12.38;1.65;;;;;;;15.09;49.32;100553.78;4975607;28;20000;-82
2023/04/14 10:19:37;;;;;;;7.60;1.67;;;;;;;15.19;49.41;100552.66;4986624;28;20045;-82
2023/04/14 10:22:04;;;;;;;4.30;1.20;;;;;;;15.60;48.32;100536.41;4978732;28;20034;-83
2023/04/14 10:24:30;;;;;;;10.82;1.30;;;;;;;15.66;49.19;100534.00;4968054;28;20122;-82
2023/04/14 10:26:57;;;;;;;5.82;1.27;;;;;;;15.34;47.17;100530.00;4999220;28;20086;-83
2023/04/14 10:29:23;;;;;;;12.00;1.20;;;;;;;15.44;48.11;100523.34;4975730;28;20066;-82
2023/04/14 10:32:04;;;;;;;7.57;1.20;;;;;;;15.41;47.68;100522.81;4985815;28;20554;-83
2023/04/14 10:34:32;;;;;;;5.47;0.90;;;;;;;15.64;45.64;100520.38;4993277;28;20046;-82
2023/04/14 10:37:27;;;;;;;5.38;1.08;;;;;;;15.82;44.48;100530.53;4990680;28;20062;-83
2023/04/14 10:39:57;;;;;;;8.23;1.23;;;;;;;15.71;46.18;100526.09;4974456;28;20054;-82
2023/04/14 10:42:23;;;;;;;4.60;1.00;;;;;;;15.71;43.78;100527.00;4992743;28;20034;-82
2023/04/14 10:45:03;;;;;;;8.20;1.00;;;;;;;15.58;43.78;100510.00;4977691;28;20022;-82
2023/04/14 10:47:30;;;;;;;2.17;0.70;;;;;;;16.01;43.93;100512.88;4993899;28;20161;-80
2023/04/14 10:49:57;;;;;;;9.90;1.13;;;;;;;16.04;47.67;100507.88;4946448;28;20047;-83
2023/04/14 10:52:24;;;;;;;7.80;0.82;;;;;;;15.74;44.22;100511.97;4956479;28;20034;-82
2023/04/14 10:55:06;;;;;;;10.15;1.33;;;;;;;15.82;45.71;100503.78;4987772;28;20490;-82
2023/04/14 10:57:39;;;;;;;6.93;1.33;;;;;;;15.99;45.86;100504.75;5009039;28;20034;-83
2023/04/14 11:00:19;;;;;;;8.45;1.30;;;;;;;15.83;43.98;100510.19;4995307;28;20056;-82
2023/04/14 11:03:01;;;;;;;8.10;1.30;;;;;;;15.94;44.58;100509.91;4995444;28;20142;-82
2023/04/14 11:05:27;;;;;;;7.70;1.60;;;;;;;15.97;44.23;100507.66;4978199;28;20039;-82
2023/04/14 11:08:00;;;;;;;10.63;1.35;;;;;;;15.79;44.55;100490.34;4978110;28;20035;-82
2023/04/14 11:10:32;;;;;;;7.43;0.90;;;;;;;16.12;44.28;100487.72;4983997;28;20498;-82
2023/04/14 11:13:05;;;;;;;6.20;1.37;;;;;;;15.87;43.81;100490.38;4975347;28;20073;-82
2023/04/14 11:15:51;;;;;;;10.82;1.08;;;;;;;15.96;44.04;100488.50;4973177;28;20293;-82
2023/04/14 11:18:36;;;;;;;6.20;1.10;;;;;;;16.26;45.96;100486.19;4994886;28;20049;-82
2023/04/14 11:21:04;;;;;;;9.70;1.48;;;;;;;15.94;45.53;100485.06;4993629;28;20088;-82
2023/04/14 11:23:31;;;;;;;6.80;1.55;;;;;;;16.04;44.02;100487.69;4993285;28;20113;-82